Time,TemperatureF,DewpointF,PressureIn,WindDirection,WindDirectionDegrees,WindSpeedMPH,WindSpeedGustMPH,Humidity,HourlyPrecipIn,Conditions,Clouds,dailyrainin,SoftwareType,DateUTC
2013-04-06 00:00:00,43.6,35.9,29.70,ESE,121,8.0,11.0,74,0.00,,,0.00,Wunderground v.1.15,2013-04-06 05:00:00,
2013-04-06 00:04:00,43.6,35.9,29.70,ESE,105,9.0,11.0,74,0.00,,,0.00,Wunderground v.1.15,2013-04-06 05:04:00,
2013-04-06 00:06:00,43.6,35.9,29.70,SE,136,9.0,11.0,74,0.00,,,0.00,Wunderground v.1.15,2013-04-06 05:06:00,
2013-04-06 00:08:00,43.6,35.9,29.70,ESE,120,9.0,11.0,74,0.00,,,0.00,Wunderground v.1.15,2013-04-06 05:08:00,
2013-04-06 00:10:00,43.6,35.9,29.70,SSE,148,8.0,8.0,74,0.00,,,0.00,Wunderground v.1.15,2013-04-06 05:10:00,
2013-04-06 00:14:00,43.5,35.8,29.70,SE,141,8.0,8.0,74,0.00,,,0.00,Wunderground v.1.15,2013-04-06 05:14:00,
2013-04-06 00:16:00,43.6,35.9,29.70,SSE,155,8.0,8.0,74,0.00,,,0.00,Wunderground v.1.15,2013-04-06 05:16:00,
2013-04-06 00:20:00,43.6,35.9,29.69,SE,128,9.0,10.0,74,0.00,,,0.00,Wunderground v.1.15,2013-04-06 05:20:00,
2013-04-06 00:24:00,43.5,36.1,29.69,ESE,120,9.0,10.0,75,0.00,,,0.00,Wunderground v.1.15,2013-04-06 05:24:00,
2013-04-06 00:26:00,43.5,36.1,29.69,ESE,117,9.0,10.0,75,0.00,,,0.00,Wunderground v.1.15,2013-04-06 05:26:00,
2013-04-06 00:28:00,43.5,36.1,29.69,SSE,148,9.0,10.0,75,0.00,,,0.00,Wunderground v.1.15,2013-04-06 05:28:00,
2013-04-06 00:30:00,43.4,36.0,29.69,SE,132,9.0,9.0,75,0.00,,,0.00,Wunderground v.1.15,2013-04-06 05:30:00,
2013-04-06 00:32:00,43.4,36.0,29.69,SE,142,9.0,9.0,75,0.00,,,0.00,Wunderground v.1.15,2013-04-06 05:32:00,
2013-04-06 00:34:00,43.4,36.0,29.69,SE,133,9.0,9.0,75,0.00,,,0.00,Wunderground v.1.15,2013-04-06 05:34:00,
2013-04-06 00:38:00,43.3,35.9,29.69,SE,127,9.0,9.0,75,0.00,,,0.00,Wunderground v.1.15,2013-04-06 05:38:00,
2013-04-06 00:42:00,43.2,36.1,29.69,SE,146,9.0,10.0,76,0.00,,,0.00,Wunderground v.1.15,2013-04-06 05:42:00,
2013-04-06 00:44:00,43.2,36.1,29.68,SSE,148,9.0,10.0,76,0.00,,,0.00,Wunderground v.1.15,2013-04-06 05:44:00,
2013-04-06 00:46:00,43.2,36.1,29.68,SE,125,9.0,10.0,76,0.00,,,0.00,Wunderground v.1.15,2013-04-06 05:46:00,
2013-04-06 00:52:00,43.0,36.3,29.68,SE,135,9.0,9.0,77,0.00,,,0.00,Wunderground v.1.15,2013-04-06 05:52:00,
2013-04-06 00:54:00,43.0,36.3,29.68,ESE,105,9.0,12.0,77,0.00,,,0.00,Wunderground v.1.15,2013-04-06 05:54:00,
2013-04-06 01:00:00,42.9,36.2,29.67,SE,132,9.0,9.0,77,0.00,,,0.00,Wunderground v.1.15,2013-04-06 06:00:00,
2013-04-06 01:02:00,42.9,36.2,29.67,SSE,148,9.0,12.0,77,0.00,,,0.00,Wunderground v.1.15,2013-04-06 06:02:00,
2013-04-06 01:06:00,42.8,36.4,29.67,SE,138,9.0,12.0,78,0.00,,,0.00,Wunderground v.1.15,2013-04-06 06:06:00,
2013-04-06 01:08:00,42.7,36.3,29.67,SE,135,8.0,12.0,78,0.00,,,0.00,Wunderground v.1.15,2013-04-06 06:08:00,
2013-04-06 01:14:00,42.5,36.1,29.67,SSE,155,8.0,12.0,78,0.00,,,0.00,Wunderground v.1.15,2013-04-06 06:14:00,
2013-04-06 01:18:00,42.5,36.1,29.67,SE,127,8.0,12.0,78,0.00,,,0.00,Wunderground v.1.15,2013-04-06 06:18:00,
2013-04-06 01:20:00,42.5,36.4,29.67,SE,124,8.0,12.0,79,0.00,,,0.00,Wunderground v.1.15,2013-04-06 06:20:00,
2013-04-06 01:24:00,42.5,36.4,29.66,SE,128,8.0,12.0,79,0.00,,,0.00,Wunderground v.1.15,2013-04-06 06:24:00,
2013-04-06 01:28:00,42.5,36.4,29.66,SE,130,8.0,12.0,79,0.00,,,0.00,Wunderground v.1.15,2013-04-06 06:28:00,
2013-04-06 01:32:00,42.4,36.3,29.66,SE,134,8.0,12.0,79,0.00,,,0.00,Wunderground v.1.15,2013-04-06 06:32:00,
2013-04-06 01:34:00,42.5,36.4,29.66,SE,136,8.0,12.0,79,0.00,,,0.00,Wunderground v.1.15,2013-04-06 06:34:00,
2013-04-06 01:36:00,42.5,36.4,29.66,SSE,150,8.0,12.0,79,0.00,,,0.00,Wunderground v.1.15,2013-04-06 06:36:00,
2013-04-06 01:38:00,42.5,36.4,29.66,ESE,121,8.0,12.0,79,0.00,,,0.00,Wunderground v.1.15,2013-04-06 06:38:00,
2013-04-06 01:40:00,42.5,36.4,29.66,SE,143,8.0,12.0,79,0.00,,,0.00,Wunderground v.1.15,2013-04-06 06:40:00,
2013-04-06 01:42:00,42.5,36.8,29.66,SSE,154,8.0,12.0,80,0.00,,,0.00,Wunderground v.1.15,2013-04-06 06:42:00,
2013-04-06 01:46:00,42.5,36.8,29.66,SSE,150,8.0,12.0,80,0.00,,,0.00,Wunderground v.1.15,2013-04-06 06:46:00,
2013-04-06 01:48:00,42.5,36.8,29.66,ESE,123,8.0,12.0,80,0.00,,,0.00,Wunderground v.1.15,2013-04-06 06:48:00,
2013-04-06 01:50:00,42.4,36.7,29.66,SSE,152,8.0,8.0,80,0.00,,,0.00,Wunderground v.1.15,2013-04-06 06:50:00,
2013-04-06 01:54:00,42.4,36.7,29.66,SSE,150,8.0,12.0,80,0.00,,,0.00,Wunderground v.1.15,2013-04-06 06:54:00,
2013-04-06 01:56:00,42.3,36.6,29.66,SE,139,8.0,12.0,80,0.00,,,0.00,Wunderground v.1.15,2013-04-06 06:56:00,
2013-04-06 02:00:00,42.2,36.8,29.66,SE,136,8.0,8.0,81,0.00,,,0.00,Wunderground v.1.15,2013-04-06 07:00:00,
2013-04-06 02:04:00,42.2,36.8,29.65,SE,134,7.0,12.0,81,0.00,,,0.00,Wunderground v.1.15,2013-04-06 07:04:00,
2013-04-06 02:06:00,42.2,36.8,29.65,SE,141,7.0,12.0,81,0.00,,,0.00,Wunderground v.1.15,2013-04-06 07:06:00,
2013-04-06 02:10:00,42.1,36.7,29.65,SE,127,7.0,12.0,81,0.00,,,0.00,Wunderground v.1.15,2013-04-06 07:10:00,
2013-04-06 02:12:00,42.0,36.6,29.65,ESE,110,7.0,12.0,81,0.00,,,0.00,Wunderground v.1.15,2013-04-06 07:12:00,
2013-04-06 02:14:00,42.0,36.9,29.65,ESE,121,7.0,12.0,82,0.00,,,0.00,Wunderground v.1.15,2013-04-06 07:14:00,
2013-04-06 02:16:00,41.9,36.8,29.65,SE,141,7.0,12.0,82,0.00,,,0.00,Wunderground v.1.15,2013-04-06 07:16:00,
2013-04-06 02:20:00,41.9,36.8,29.65,SE,139,7.0,7.0,82,0.00,,,0.00,Wunderground v.1.15,2013-04-06 07:20:00,
2013-04-06 02:28:00,42.2,37.1,29.64,SE,136,7.0,12.0,82,0.00,,,0.00,Wunderground v.1.15,2013-04-06 07:28:00,
2013-04-06 02:30:00,42.2,37.1,29.64,SE,127,7.0,12.0,82,0.00,,,0.00,Wunderground v.1.15,2013-04-06 07:30:00,
2013-04-06 02:36:00,42.4,37.3,29.64,SE,126,7.0,12.0,82,0.00,,,0.00,Wunderground v.1.15,2013-04-06 07:36:00,
2013-04-06 02:38:00,42.5,37.4,29.63,SE,124,7.0,12.0,82,0.00,,,0.00,Wunderground v.1.15,2013-04-06 07:38:00,
2013-04-06 02:40:00,42.6,37.5,29.63,SE,141,7.0,12.0,82,0.00,,,0.00,Wunderground v.1.15,2013-04-06 07:40:00,
2013-04-06 02:44:00,42.8,37.7,29.63,ESE,122,7.0,12.0,82,0.00,,,0.00,Wunderground v.1.15,2013-04-06 07:44:00,
2013-04-06 02:46:00,42.9,37.8,29.63,SE,146,7.0,12.0,82,0.00,,,0.00,Wunderground v.1.15,2013-04-06 07:46:00,
2013-04-06 02:48:00,43.1,38.0,29.63,SE,131,7.0,12.0,82,0.00,,,0.00,Wunderground v.1.15,2013-04-06 07:48:00,
2013-04-06 02:54:00,43.5,38.1,29.62,SE,142,8.0,12.0,81,0.00,,,0.00,Wunderground v.1.15,2013-04-06 07:54:00,
2013-04-06 02:58:00,43.7,38.3,29.62,SE,142,8.0,12.0,81,0.00,,,0.00,Wunderground v.1.15,2013-04-06 07:58:00,
2013-04-06 03:04:00,43.9,38.4,29.61,SE,138,9.0,12.0,81,0.00,,,0.00,Wunderground v.1.15,2013-04-06 08:04:00,
2013-04-06 03:08:00,44.0,38.5,29.61,SSE,153,9.0,12.0,81,0.00,,,0.00,Wunderground v.1.15,2013-04-06 08:08:00,
2013-04-06 03:10:00,44.0,38.5,29.61,SE,132,9.0,12.0,81,0.00,,,0.00,Wunderground v.1.15,2013-04-06 08:10:00,
2013-04-06 03:12:00,44.1,38.6,29.61,South,170,9.0,12.0,81,0.00,,,0.00,Wunderground v.1.15,2013-04-06 08:12:00,
2013-04-06 03:16:00,44.2,38.7,29.61,ESE,120,9.0,12.0,81,0.00,,,0.00,Wunderground v.1.15,2013-04-06 08:16:00,
2013-04-06 03:18:00,44.2,38.7,29.61,SE,138,9.0,12.0,81,0.00,,,0.00,Wunderground v.1.15,2013-04-06 08:18:00,
2013-04-06 03:20:00,44.3,38.8,29.61,ESE,121,9.0,12.0,81,0.00,,,0.00,Wunderground v.1.15,2013-04-06 08:20:00,
2013-04-06 03:24:00,44.4,38.9,29.61,SE,138,9.0,12.0,81,0.00,,,0.00,Wunderground v.1.15,2013-04-06 08:24:00,
2013-04-06 03:30:00,44.7,39.2,29.61,SE,136,9.0,12.0,81,0.00,,,0.00,Wunderground v.1.15,2013-04-06 08:30:00,
2013-04-06 03:32:00,44.7,39.2,29.60,ESE,113,9.0,12.0,81,0.00,,,0.00,Wunderground v.1.15,2013-04-06 08:32:00,
2013-04-06 03:34:00,44.8,39.3,29.60,SSE,156,9.0,12.0,81,0.00,,,0.00,Wunderground v.1.15,2013-04-06 08:34:00,
2013-04-06 03:36:00,44.7,39.2,29.60,SE,131,9.0,12.0,81,0.00,,,0.00,Wunderground v.1.15,2013-04-06 08:36:00,
2013-04-06 03:42:00,44.7,39.2,29.60,ESE,121,9.0,12.0,81,0.00,,,0.00,Wunderground v.1.15,2013-04-06 08:42:00,
2013-04-06 03:44:00,44.6,39.1,29.60,SE,145,9.0,12.0,81,0.00,,,0.00,Wunderground v.1.15,2013-04-06 08:44:00,
2013-04-06 03:46:00,44.7,39.5,29.60,SE,135,9.0,12.0,82,0.00,,,0.00,Wunderground v.1.15,2013-04-06 08:46:00,
2013-04-06 03:50:00,44.8,39.6,29.60,SSE,151,9.0,12.0,82,0.00,,,0.00,Wunderground v.1.15,2013-04-06 08:50:00,
2013-04-06 03:58:00,45.0,39.5,29.59,SE,142,9.0,12.0,81,0.00,,,0.00,Wunderground v.1.15,2013-04-06 08:58:00,
2013-04-06 04:00:00,45.0,39.8,29.59,SE,136,9.0,9.0,82,0.00,,,0.00,Wunderground v.1.15,2013-04-06 09:00:00,
2013-04-06 04:02:00,45.0,39.8,29.59,SE,139,9.0,12.0,82,0.00,,,0.00,Wunderground v.1.15,2013-04-06 09:02:00,
2013-04-06 04:08:00,45.0,39.8,29.58,SE,133,8.0,12.0,82,0.00,,,0.00,Wunderground v.1.15,2013-04-06 09:08:00,
2013-04-06 04:18:00,45.1,39.9,29.58,SSE,150,9.0,12.0,82,0.00,,,0.00,Wunderground v.1.15,2013-04-06 09:18:00,
2013-04-06 04:20:00,45.0,39.8,29.58,SE,132,9.0,9.0,82,0.00,,,0.00,Wunderground v.1.15,2013-04-06 09:20:00,
2013-04-06 04:22:00,45.0,39.8,29.58,SE,132,9.0,12.0,82,0.00,,,0.00,Wunderground v.1.15,2013-04-06 09:22:00,
2013-04-06 04:24:00,45.0,39.8,29.58,SE,136,9.0,12.0,82,0.00,,,0.00,Wunderground v.1.15,2013-04-06 09:24:00,
2013-04-06 04:26:00,45.0,39.8,29.58,SE,135,9.0,12.0,82,0.00,,,0.00,Wunderground v.1.15,2013-04-06 09:26:00,
2013-04-06 04:32:00,45.1,39.9,29.57,SE,128,9.0,12.0,82,0.00,,,0.00,Wunderground v.1.15,2013-04-06 09:32:00,
2013-04-06 04:34:00,45.1,39.9,29.57,SE,127,9.0,12.0,82,0.00,,,0.00,Wunderground v.1.15,2013-04-06 09:34:00,
2013-04-06 04:38:00,45.2,40.0,29.57,SSE,151,9.0,12.0,82,0.00,,,0.00,Wunderground v.1.15,2013-04-06 09:38:00,
2013-04-06 04:42:00,45.2,40.3,29.58,ESE,113,9.0,12.0,83,0.00,,,0.00,Wunderground v.1.15,2013-04-06 09:42:00,
2013-04-06 04:44:00,45.2,40.3,29.58,SE,128,9.0,12.0,83,0.00,,,0.00,Wunderground v.1.15,2013-04-06 09:44:00,
2013-04-06 04:48:00,45.2,40.0,29.58,SE,146,8.0,12.0,82,0.00,,,0.00,Wunderground v.1.15,2013-04-06 09:48:00,
2013-04-06 04:50:00,45.2,40.0,29.58,SE,133,8.0,8.0,82,0.00,,,0.00,Wunderground v.1.15,2013-04-06 09:50:00,
2013-04-06 04:56:00,45.2,40.3,29.57,SE,136,7.0,12.0,83,0.00,,,0.00,Wunderground v.1.15,2013-04-06 09:56:00,
2013-04-06 04:58:00,45.2,40.3,29.58,SSE,150,7.0,12.0,83,0.00,,,0.00,Wunderground v.1.15,2013-04-06 09:58:00,
2013-04-06 05:00:00,45.2,40.3,29.57,SE,136,7.0,7.0,83,0.00,,,0.00,Wunderground v.1.15,2013-04-06 10:00:00,
2013-04-06 05:06:00,45.5,40.6,29.57,ESE,117,7.0,12.0,83,0.00,,,0.00,Wunderground v.1.15,2013-04-06 10:06:00,
2013-04-06 05:08:00,45.7,40.8,29.57,SE,145,7.0,12.0,83,0.00,,,0.00,Wunderground v.1.15,2013-04-06 10:08:00,
2013-04-06 05:10:00,46.1,40.9,29.57,SE,145,8.0,8.0,82,0.00,,,0.00,Wunderground v.1.15,2013-04-06 10:10:00,
2013-04-06 05:12:00,46.3,40.8,29.56,SE,139,8.0,12.0,81,0.00,,,0.00,Wunderground v.1.15,2013-04-06 10:12:00,
2013-04-06 05:14:00,46.3,40.8,29.56,SE,136,8.0,12.0,81,0.00,,,0.00,Wunderground v.1.15,2013-04-06 10:14:00,
2013-04-06 05:18:00,46.3,40.8,29.56,SSE,148,8.0,12.0,81,0.00,,,0.00,Wunderground v.1.15,2013-04-06 10:18:00,
2013-04-06 05:20:00,46.3,40.8,29.56,SE,141,7.0,7.0,81,0.00,,,0.00,Wunderground v.1.15,2013-04-06 10:20:00,
2013-04-06 05:24:00,46.4,40.9,29.56,SE,136,7.0,12.0,81,0.00,,,0.00,Wunderground v.1.15,2013-04-06 10:24:00,
2013-04-06 05:26:00,46.6,41.1,29.56,ESE,120,7.0,12.0,81,0.00,,,0.00,Wunderground v.1.15,2013-04-06 10:26:00,
2013-04-06 05:32:00,46.6,41.1,29.56,SE,143,8.0,12.0,81,0.00,,,0.00,Wunderground v.1.15,2013-04-06 10:32:00,
2013-04-06 05:34:00,46.5,41.0,29.56,SE,132,8.0,12.0,81,0.00,,,0.00,Wunderground v.1.15,2013-04-06 10:34:00,
2013-04-06 05:40:00,46.4,41.2,29.56,SE,146,6.0,6.0,82,0.00,,,0.00,Wunderground v.1.15,2013-04-06 10:40:00,
2013-04-06 05:42:00,46.3,40.8,29.57,SE,135,5.0,12.0,81,0.00,,,0.00,Wunderground v.1.15,2013-04-06 10:42:00,
2013-04-06 05:50:00,45.7,40.8,29.56,SE,138,4.0,12.0,83,0.00,,,0.00,Wunderground v.1.15,2013-04-06 10:50:00,
2013-04-06 05:56:00,45.4,40.5,29.56,SE,135,4.0,12.0,83,0.00,,,0.00,Wunderground v.1.15,2013-04-06 10:56:00,
2013-04-06 05:58:00,45.3,40.4,29.56,SE,127,4.0,12.0,83,0.00,,,0.00,Wunderground v.1.15,2013-04-06 10:58:00,
2013-04-06 06:00:00,45.1,40.2,29.55,SE,138,5.0,12.0,83,0.00,,,0.00,Wunderground v.1.15,2013-04-06 11:00:00,
2013-04-06 06:04:00,44.9,40.4,29.55,SE,136,5.0,12.0,84,0.00,,,0.00,Wunderground v.1.15,2013-04-06 11:04:00,
2013-04-06 06:08:00,44.7,39.9,29.56,SE,136,5.0,12.0,83,0.00,,,0.00,Wunderground v.1.15,2013-04-06 11:08:00,
2013-04-06 06:12:00,44.5,40.3,29.56,SE,134,4.0,12.0,85,0.00,,,0.00,Wunderground v.1.15,2013-04-06 11:12:00,
2013-04-06 06:14:00,44.7,40.5,29.55,SE,140,4.0,12.0,85,0.00,,,0.00,Wunderground v.1.15,2013-04-06 11:14:00,
2013-04-06 06:16:00,44.8,40.6,29.55,SE,135,4.0,12.0,85,0.00,,,0.00,Wunderground v.1.15,2013-04-06 11:16:00,
2013-04-06 06:18:00,44.9,40.4,29.55,SE,125,5.0,12.0,84,0.00,,,0.00,Wunderground v.1.15,2013-04-06 11:18:00,
2013-04-06 06:20:00,44.9,40.7,29.55,SE,133,5.0,5.0,85,0.00,,,0.00,Wunderground v.1.15,2013-04-06 11:20:00,
2013-04-06 06:26:00,45.1,40.9,29.54,SE,136,5.0,12.0,85,0.00,,,0.00,Wunderground v.1.15,2013-04-06 11:26:00,
2013-04-06 06:28:00,45.2,40.7,29.54,SE,126,5.0,12.0,84,0.00,,,0.00,Wunderground v.1.15,2013-04-06 11:28:00,
2013-04-06 06:34:00,45.6,41.0,29.53,SE,141,5.0,12.0,84,0.00,,,0.00,Wunderground v.1.15,2013-04-06 11:34:00,
2013-04-06 06:38:00,46.2,41.3,29.53,SSE,160,6.0,12.0,83,0.00,,,0.00,Wunderground v.1.15,2013-04-06 11:38:00,
2013-04-06 06:40:00,46.4,41.2,29.53,ESE,123,6.0,12.0,82,0.00,,,0.00,Wunderground v.1.15,2013-04-06 11:40:00,
2013-04-06 06:46:00,46.9,41.4,29.53,SSE,152,6.0,12.0,81,0.00,,,0.00,Wunderground v.1.15,2013-04-06 11:46:00,
2013-04-06 06:48:00,46.9,41.4,29.53,SE,144,6.0,12.0,81,0.00,,,0.00,Wunderground v.1.15,2013-04-06 11:48:00,
2013-04-06 06:50:00,46.9,41.4,29.53,SE,142,6.0,6.0,81,0.00,,,0.00,Wunderground v.1.15,2013-04-06 11:50:00,
2013-04-06 06:52:00,46.9,41.4,29.53,ESE,122,6.0,12.0,81,0.00,,,0.00,Wunderground v.1.15,2013-04-06 11:52:00,
2013-04-06 06:56:00,46.9,41.4,29.53,SSE,155,5.0,12.0,81,0.00,,,0.00,Wunderground v.1.15,2013-04-06 11:56:00,
2013-04-06 06:58:00,46.8,41.3,29.52,SSE,150,5.0,12.0,81,0.00,,,0.00,Wunderground v.1.15,2013-04-06 11:58:00,
2013-04-06 07:02:00,47.0,41.5,29.52,SE,129,6.0,12.0,81,0.00,,,0.00,Wunderground v.1.15,2013-04-06 12:02:00,
2013-04-06 07:04:00,46.9,41.1,29.52,SE,135,6.0,12.0,80,0.00,,,0.00,Wunderground v.1.15,2013-04-06 12:04:00,
2013-04-06 07:10:00,46.8,41.3,29.52,SE,134,7.0,12.0,81,0.00,,,0.00,Wunderground v.1.15,2013-04-06 12:10:00,
2013-04-06 07:12:00,46.9,41.4,29.52,SSE,155,7.0,12.0,81,0.00,,,0.00,Wunderground v.1.15,2013-04-06 12:12:00,
2013-04-06 07:14:00,47.0,41.5,29.52,SSE,160,7.0,12.0,81,0.00,,,0.00,Wunderground v.1.15,2013-04-06 12:14:00,
2013-04-06 07:18:00,46.9,41.4,29.52,SE,129,7.0,12.0,81,0.00,,,0.00,Wunderground v.1.15,2013-04-06 12:18:00,
2013-04-06 07:22:00,46.9,41.1,29.52,SSE,160,7.0,12.0,80,0.00,,,0.00,Wunderground v.1.15,2013-04-06 12:22:00,
2013-04-06 07:24:00,46.9,41.4,29.52,SSE,148,7.0,12.0,81,0.00,,,0.00,Wunderground v.1.15,2013-04-06 12:24:00,
2013-04-06 07:30:00,47.0,41.5,29.52,SSE,163,7.0,12.0,81,0.00,,,0.00,Wunderground v.1.15,2013-04-06 12:30:00,
2013-04-06 07:32:00,47.0,41.5,29.51,SE,143,7.0,12.0,81,0.00,,,0.00,Wunderground v.1.15,2013-04-06 12:32:00,
2013-04-06 07:38:00,47.2,41.7,29.51,SSE,148,7.0,12.0,81,0.00,,,0.00,Wunderground v.1.15,2013-04-06 12:38:00,
2013-04-06 07:40:00,47.2,41.7,29.51,SSE,160,7.0,12.0,81,0.00,,,0.00,Wunderground v.1.15,2013-04-06 12:40:00,
2013-04-06 07:42:00,47.3,41.8,29.51,SSE,162,7.0,12.0,81,0.00,,,0.00,Wunderground v.1.15,2013-04-06 12:42:00,
2013-04-06 07:48:00,47.5,42.0,29.51,SE,143,7.0,12.0,81,0.00,,,0.00,Wunderground v.1.15,2013-04-06 12:48:00,
2013-04-06 07:52:00,47.4,41.5,29.51,SSE,159,7.0,12.0,80,0.00,,,0.00,Wunderground v.1.15,2013-04-06 12:52:00,
2013-04-06 07:54:00,47.4,41.5,29.51,SE,143,7.0,12.0,80,0.00,,,0.00,Wunderground v.1.15,2013-04-06 12:54:00,
2013-04-06 07:58:00,47.5,42.0,29.51,South,170,7.0,12.0,81,0.00,,,0.00,Wunderground v.1.15,2013-04-06 12:58:00,
2013-04-06 08:00:00,47.5,42.0,29.51,South,172,7.0,12.0,81,0.00,,,0.00,Wunderground v.1.15,2013-04-06 13:00:00,
2013-04-06 08:04:00,47.5,42.0,29.51,SSE,165,7.0,12.0,81,0.00,,,0.00,Wunderground v.1.15,2013-04-06 13:04:00,
2013-04-06 08:06:00,47.6,41.7,29.51,SSE,159,7.0,12.0,80,0.00,,,0.00,Wunderground v.1.15,2013-04-06 13:06:00,
2013-04-06 08:10:00,47.7,41.8,29.50,SE,141,7.0,7.0,80,0.00,,,0.00,Wunderground v.1.15,2013-04-06 13:10:00,
2013-04-06 08:12:00,47.8,42.3,29.50,South,169,7.0,12.0,81,0.00,,,0.00,Wunderground v.1.15,2013-04-06 13:12:00,
2013-04-06 08:14:00,47.9,42.0,29.50,South,172,7.0,12.0,80,0.00,,,0.00,Wunderground v.1.15,2013-04-06 13:14:00,
2013-04-06 08:18:00,48.2,42.3,29.50,SSE,148,7.0,12.0,80,0.00,,,0.00,Wunderground v.1.15,2013-04-06 13:18:00,
2013-04-06 08:20:00,48.3,42.4,29.50,SE,145,7.0,12.0,80,0.00,,,0.00,Wunderground v.1.15,2013-04-06 13:20:00,
2013-04-06 08:22:00,48.4,42.5,29.50,SSE,158,7.0,12.0,80,0.00,,,0.00,Wunderground v.1.15,2013-04-06 13:22:00,
2013-04-06 08:24:00,48.4,42.2,29.50,SSE,165,6.0,12.0,79,0.00,,,0.00,Wunderground v.1.15,2013-04-06 13:24:00,
2013-04-06 08:26:00,48.4,42.2,29.50,SSE,158,6.0,12.0,79,0.00,,,0.00,Wunderground v.1.15,2013-04-06 13:26:00,
2013-04-06 08:30:00,48.5,42.3,29.49,SSE,150,7.0,12.0,79,0.00,,,0.00,Wunderground v.1.15,2013-04-06 13:30:00,
2013-04-06 08:32:00,48.4,42.2,29.49,South,176,6.0,12.0,79,0.00,,,0.00,Wunderground v.1.15,2013-04-06 13:32:00,
2013-04-06 08:38:00,48.4,42.5,29.49,SE,145,6.0,12.0,80,0.00,,,0.00,Wunderground v.1.15,2013-04-06 13:38:00,
2013-04-06 08:40:00,48.4,42.5,29.49,South,170,6.0,6.0,80,0.00,,,0.00,Wunderground v.1.15,2013-04-06 13:40:00,
2013-04-06 08:42:00,48.5,42.6,29.49,SSE,150,6.0,12.0,80,0.00,,,0.00,Wunderground v.1.15,2013-04-06 13:42:00,
2013-04-06 08:46:00,48.7,42.8,29.49,South,173,6.0,12.0,80,0.00,,,0.00,Wunderground v.1.15,2013-04-06 13:46:00,
2013-04-06 08:48:00,48.8,42.9,29.49,SSE,154,6.0,12.0,80,0.00,,,0.00,Wunderground v.1.15,2013-04-06 13:48:00,
2013-04-06 08:52:00,49.2,43.0,29.48,South,186,6.0,7.0,79,0.00,,,0.00,Wunderground v.1.15,2013-04-06 13:52:00,
2013-04-06 08:54:00,49.3,43.1,29.48,SSE,168,6.0,12.0,79,0.00,,,0.00,Wunderground v.1.15,2013-04-06 13:54:00,
2013-04-06 08:58:00,49.7,43.5,29.49,South,173,6.0,12.0,79,0.00,,,0.00,Wunderground v.1.15,2013-04-06 13:58:00,
2013-04-06 09:00:00,50.0,43.7,29.48,South,177,6.0,12.0,79,0.00,,,0.00,Wunderground v.1.15,2013-04-06 14:00:00,
2013-04-06 09:08:00,51.4,44.1,29.48,South,173,7.0,12.0,76,0.00,,,0.00,Wunderground v.1.15,2013-04-06 14:08:00,
2013-04-06 09:14:00,51.9,44.2,29.48,SSE,155,8.0,12.0,75,0.00,,,0.00,Wunderground v.1.15,2013-04-06 14:14:00,
2013-04-06 09:18:00,52.0,44.3,29.48,SSW,201,8.0,12.0,75,0.00,,,0.00,Wunderground v.1.15,2013-04-06 14:18:00,
2013-04-06 09:22:00,52.2,44.5,29.47,SSE,156,8.0,12.0,75,0.00,,,0.00,Wunderground v.1.15,2013-04-06 14:22:00,
2013-04-06 09:26:00,52.4,44.7,29.47,SSW,196,8.0,12.0,75,0.00,,,0.00,Wunderground v.1.15,2013-04-06 14:26:00,
2013-04-06 09:30:00,52.9,44.8,29.47,SW,230,8.0,13.0,74,0.00,,,0.00,Wunderground v.1.15,2013-04-06 14:30:00,
2013-04-06 09:36:00,53.8,45.3,29.47,SSE,160,8.0,13.0,73,0.00,,,0.00,Wunderground v.1.15,2013-04-06 14:36:00,
2013-04-06 09:38:00,53.9,45.1,29.47,SSW,205,8.0,13.0,72,0.00,,,0.00,Wunderground v.1.15,2013-04-06 14:38:00,
2013-04-06 09:42:00,54.3,45.1,29.47,SSW,197,9.0,9.0,71,0.00,,,0.00,Wunderground v.1.15,2013-04-06 14:42:00,
2013-04-06 09:44:00,54.5,45.3,29.46,SE,141,9.0,12.0,71,0.00,,,0.00,Wunderground v.1.15,2013-04-06 14:44:00,
2013-04-06 09:48:00,54.7,45.5,29.46,SSW,194,10.0,12.0,71,0.00,,,0.00,Wunderground v.1.15,2013-04-06 14:48:00,
2013-04-06 09:52:00,55.0,45.8,29.46,SW,228,11.0,12.0,71,0.00,,,0.00,Wunderground v.1.15,2013-04-06 14:52:00,
2013-04-06 09:54:00,55.0,45.8,29.46,South,191,11.0,12.0,71,0.00,,,0.00,Wunderground v.1.15,2013-04-06 14:54:00,
2013-04-06 09:56:00,55.3,46.1,29.46,South,170,11.0,12.0,71,0.00,,,0.00,Wunderground v.1.15,2013-04-06 14:56:00,
2013-04-06 09:58:00,55.3,46.1,29.46,South,188,12.0,17.0,71,0.00,,,0.00,Wunderground v.1.15,2013-04-06 14:58:00,
2013-04-06 10:04:00,55.5,45.9,29.46,SSW,208,14.0,24.0,70,0.00,,,0.00,Wunderground v.1.15,2013-04-06 15:04:00,
2013-04-06 10:06:00,55.5,45.9,29.46,SW,224,15.0,24.0,70,0.00,,,0.00,Wunderground v.1.15,2013-04-06 15:06:00,
2013-04-06 10:08:00,55.5,45.9,29.46,SW,215,15.0,24.0,70,0.00,,,0.00,Wunderground v.1.15,2013-04-06 15:08:00,
2013-04-06 10:12:00,55.5,45.9,29.46,SW,226,15.0,16.0,70,0.00,,,0.00,Wunderground v.1.15,2013-04-06 15:12:00,
2013-04-06 10:18:00,55.2,46.0,29.47,SW,229,17.0,20.0,71,0.00,,,0.00,Wunderground v.1.15,2013-04-06 15:18:00,
2013-04-06 10:22:00,55.5,46.2,29.46,SSW,203,17.0,17.0,71,0.00,,,0.00,Wunderground v.1.15,2013-04-06 15:22:00,
2013-04-06 10:26:00,55.9,46.6,29.46,WSW,238,17.0,18.0,71,0.00,,,0.00,Wunderground v.1.15,2013-04-06 15:26:00,
2013-04-06 10:28:00,56.1,46.4,29.46,WSW,240,17.0,18.0,70,0.00,,,0.00,Wunderground v.1.15,2013-04-06 15:28:00,
2013-04-06 10:34:00,56.1,46.4,29.46,WSW,238,17.0,21.0,70,0.00,,,0.00,Wunderground v.1.15,2013-04-06 15:34:00,
2013-04-06 10:38:00,56.1,47.2,29.46,SW,224,16.0,21.0,72,0.00,,,0.00,Wunderground v.1.15,2013-04-06 15:38:00,
2013-04-06 10:44:00,56.7,46.6,29.46,WSW,240,16.0,19.0,69,0.00,,,0.00,Wunderground v.1.15,2013-04-06 15:44:00,
2013-04-06 10:46:00,56.5,46.8,29.46,WSW,248,16.0,19.0,70,0.00,,,0.00,Wunderground v.1.15,2013-04-06 15:46:00,
2013-04-06 10:48:00,56.4,46.7,29.46,SW,233,16.0,21.0,70,0.00,,,0.00,Wunderground v.1.15,2013-04-06 15:48:00,
2013-04-06 10:52:00,56.2,46.9,29.46,WSW,244,15.0,16.0,71,0.00,,,0.00,Wunderground v.1.15,2013-04-06 15:52:00,
2013-04-06 10:56:00,55.5,45.9,29.47,West,259,15.0,16.0,70,0.00,,,0.00,Wunderground v.1.15,2013-04-06 15:56:00,
2013-04-06 10:58:00,55.3,46.4,29.47,WSW,249,14.0,16.0,72,0.00,,,0.00,Wunderground v.1.15,2013-04-06 15:58:00,
2013-04-06 11:02:00,54.8,45.6,29.47,West,263,14.0,15.0,71,0.00,,,0.00,Wunderground v.1.15,2013-04-06 16:02:00,
2013-04-06 11:04:00,54.6,45.4,29.47,SW,236,15.0,15.0,71,0.00,,,0.00,Wunderground v.1.15,2013-04-06 16:04:00,
2013-04-06 11:08:00,54.3,45.1,29.47,WSW,241,15.0,17.0,71,0.00,,,0.00,Wunderground v.1.15,2013-04-06 16:08:00,
2013-04-06 11:10:00,54.3,45.5,29.47,West,263,15.0,16.0,72,0.00,,,0.00,Wunderground v.1.15,2013-04-06 16:10:00,
2013-04-06 11:14:00,55.2,46.0,29.48,West,266,16.0,17.0,71,0.00,,,0.00,Wunderground v.1.15,2013-04-06 16:14:00,
2013-04-06 11:18:00,55.3,44.9,29.48,WSW,250,17.0,17.0,68,0.00,,,0.00,Wunderground v.1.15,2013-04-06 16:18:00,
2013-04-06 11:20:00,54.9,44.5,29.48,WSW,249,17.0,20.0,68,0.00,,,0.00,Wunderground v.1.15,2013-04-06 16:20:00,
2013-04-06 11:22:00,54.5,44.2,29.48,WSW,256,17.0,20.0,68,0.00,,,0.00,Wunderground v.1.15,2013-04-06 16:22:00,
2013-04-06 11:28:00,53.2,43.7,29.49,West,266,16.0,20.0,70,0.00,,,0.00,Wunderground v.1.15,2013-04-06 16:28:00,
2013-04-06 11:30:00,52.9,43.4,29.48,WSW,253,15.0,17.0,70,0.00,,,0.00,Wunderground v.1.15,2013-04-06 16:30:00,
2013-04-06 11:34:00,52.1,42.6,29.49,WSW,243,15.0,17.0,70,0.00,,,0.00,Wunderground v.1.15,2013-04-06 16:34:00,
2013-04-06 11:36:00,51.7,43.0,29.49,West,273,15.0,17.0,72,0.00,,,0.00,Wunderground v.1.15,2013-04-06 16:36:00,
2013-04-06 11:40:00,51.3,42.6,29.49,WSW,250,14.0,14.0,72,0.00,,,0.00,Wunderground v.1.15,2013-04-06 16:40:00,
2013-04-06 11:44:00,50.6,42.3,29.49,WSW,252,14.0,14.0,73,0.00,,,0.00,Wunderground v.1.15,2013-04-06 16:44:00,
2013-04-06 11:46:00,50.5,42.2,29.49,WSW,245,14.0,15.0,73,0.00,,,0.00,Wunderground v.1.15,2013-04-06 16:46:00,
2013-04-06 11:52:00,49.7,41.0,29.49,West,271,14.0,14.0,72,0.00,,,0.00,Wunderground v.1.15,2013-04-06 16:52:00,
2013-04-06 11:58:00,49.0,41.1,29.49,West,281,15.0,17.0,74,0.00,,,0.00,Wunderground v.1.15,2013-04-06 16:58:00,
2013-04-06 12:00:00,48.7,41.5,29.49,West,276,14.0,14.0,76,0.00,,,0.00,Wunderground v.1.15,2013-04-06 17:00:00,
2013-04-06 12:02:00,48.4,40.5,29.49,West,266,15.0,15.0,74,0.00,,,0.00,Wunderground v.1.15,2013-04-06 17:02:00,
2013-04-06 12:04:00,48.1,40.9,29.49,West,270,15.0,15.0,76,0.00,,,0.00,Wunderground v.1.15,2013-04-06 17:04:00,
2013-04-06 12:08:00,47.9,40.4,29.49,West,274,15.0,18.0,75,0.00,,,0.00,Wunderground v.1.15,2013-04-06 17:08:00,
2013-04-06 12:12:00,48.1,40.9,29.49,West,267,15.0,15.0,76,0.00,,,0.00,Wunderground v.1.15,2013-04-06 17:12:00,
2013-04-06 12:14:00,48.5,41.6,29.49,West,267,15.0,16.0,77,0.00,,,0.00,Wunderground v.1.15,2013-04-06 17:14:00,
2013-04-06 12:16:00,48.7,41.1,29.49,West,281,15.0,16.0,75,0.00,,,0.00,Wunderground v.1.15,2013-04-06 17:16:00,
2013-04-06 12:22:00,48.5,40.9,29.49,West,274,14.0,16.0,75,0.00,,,0.00,Wunderground v.1.15,2013-04-06 17:22:00,
2013-04-06 12:24:00,48.4,40.8,29.49,West,278,14.0,16.0,75,0.00,,,0.00,Wunderground v.1.15,2013-04-06 17:24:00,
2013-04-06 12:30:00,47.7,40.5,29.49,WNW,295,14.0,17.0,76,0.00,,,0.00,Wunderground v.1.15,2013-04-06 17:30:00,
2013-04-06 12:32:00,47.6,40.7,29.49,WNW,285,14.0,17.0,77,0.00,,,0.00,Wunderground v.1.15,2013-04-06 17:32:00,
2013-04-06 12:36:00,47.3,41.1,29.49,WNW,283,14.0,17.0,79,0.00,,,0.00,Wunderground v.1.15,2013-04-06 17:36:00,
2013-04-06 12:38:00,47.1,41.6,29.49,WNW,298,13.0,17.0,81,0.00,,,0.00,Wunderground v.1.15,2013-04-06 17:38:00,
2013-04-06 12:42:00,46.7,41.5,29.49,WNW,298,12.0,16.0,82,0.00,,,0.00,Wunderground v.1.15,2013-04-06 17:42:00,
2013-04-06 12:48:00,46.3,42.0,29.48,NW,308,11.0,16.0,85,0.00,,,0.01,Wunderground v.1.15,2013-04-06 17:48:00,
2013-04-06 12:50:00,46.2,41.9,29.48,WNW,282,10.0,10.0,85,0.00,,,0.01,Wunderground v.1.15,2013-04-06 17:50:00,
2013-04-06 12:52:00,46.2,41.9,29.48,NW,307,10.0,10.0,85,0.00,,,0.01,Wunderground v.1.15,2013-04-06 17:52:00,
2013-04-06 12:56:00,46.1,42.1,29.48,NW,309,10.0,10.0,86,0.00,,,0.01,Wunderground v.1.15,2013-04-06 17:56:00,
2013-04-06 12:58:00,46.1,42.4,29.48,WNW,295,10.0,14.0,87,0.00,,,0.01,Wunderground v.1.15,2013-04-06 17:58:00,
2013-04-06 13:02:00,46.0,42.3,29.48,WNW,300,11.0,21.0,87,0.05,,,0.02,Wunderground v.1.15,2013-04-06 18:02:00,
2013-04-06 13:04:00,46.0,42.3,29.48,NW,305,11.0,21.0,87,0.05,,,0.02,Wunderground v.1.15,2013-04-06 18:04:00,
2013-04-06 13:08:00,45.9,42.5,29.48,WNW,294,10.0,21.0,88,0.05,,,0.02,Wunderground v.1.15,2013-04-06 18:08:00,
2013-04-06 13:18:00,45.7,42.9,29.47,NW,307,7.0,21.0,90,0.11,,,0.04,Wunderground v.1.15,2013-04-06 18:18:00,
2013-04-06 13:24:00,45.9,43.4,29.45,North,352,6.0,21.0,91,0.06,,,0.05,Wunderground v.1.15,2013-04-06 18:24:00,
2013-04-06 13:30:00,46.3,44.4,29.46,NW,308,6.0,6.0,93,0.06,,,0.05,Wunderground v.1.15,2013-04-06 18:30:00,
2013-04-06 13:32:00,46.4,44.5,29.46,WNW,298,6.0,21.0,93,0.06,,,0.05,Wunderground v.1.15,2013-04-06 18:32:00,
2013-04-06 13:38:00,46.7,44.8,29.46,WNW,286,7.0,21.0,93,0.04,,,0.05,Wunderground v.1.15,2013-04-06 18:38:00,
2013-04-06 13:40:00,46.9,45.0,29.48,WNW,288,7.0,21.0,93,0.04,,,0.05,Wunderground v.1.15,2013-04-06 18:40:00,
2013-04-06 13:42:00,46.9,44.7,29.48,West,278,8.0,21.0,92,0.00,,,0.05,Wunderground v.1.15,2013-04-06 18:42:00,
2013-04-06 13:44:00,46.8,44.6,29.48,West,281,9.0,21.0,92,0.00,,,0.05,Wunderground v.1.15,2013-04-06 18:44:00,
2013-04-06 13:46:00,46.8,44.6,29.49,West,264,9.0,21.0,92,0.00,,,0.05,Wunderground v.1.15,2013-04-06 18:46:00,
2013-04-06 13:48:00,46.7,44.5,29.49,West,264,10.0,21.0,92,0.00,,,0.05,Wunderground v.1.15,2013-04-06 18:48:00,
2013-04-06 13:50:00,46.7,44.5,29.49,WSW,256,11.0,11.0,92,0.00,,,0.05,Wunderground v.1.15,2013-04-06 18:50:00,
2013-04-06 13:52:00,46.6,44.4,29.49,West,260,10.0,21.0,92,0.00,,,0.05,Wunderground v.1.15,2013-04-06 18:52:00,
2013-04-06 13:54:00,46.5,44.3,29.49,West,270,10.0,21.0,92,0.00,,,0.05,Wunderground v.1.15,2013-04-06 18:54:00,
2013-04-06 13:58:00,46.5,44.6,29.49,West,264,10.0,21.0,93,0.00,,,0.05,Wunderground v.1.15,2013-04-06 18:58:00,
2013-04-06 14:02:00,46.6,44.7,29.49,West,266,10.0,21.0,93,0.00,,,0.05,Wunderground v.1.15,2013-04-06 19:02:00,
2013-04-06 14:04:00,46.7,44.8,29.49,West,264,9.0,21.0,93,0.00,,,0.05,Wunderground v.1.15,2013-04-06 19:04:00,
2013-04-06 14:08:00,46.7,44.8,29.49,WSW,253,9.0,21.0,93,0.00,,,0.05,Wunderground v.1.15,2013-04-06 19:08:00,
2013-04-06 14:10:00,46.8,44.9,29.49,West,281,9.0,21.0,93,0.00,,,0.05,Wunderground v.1.15,2013-04-06 19:10:00,
2013-04-06 14:16:00,47.2,45.3,29.49,West,277,9.0,21.0,93,0.00,,,0.05,Wunderground v.1.15,2013-04-06 19:16:00,
2013-04-06 14:18:00,47.2,45.3,29.49,West,269,10.0,21.0,93,0.00,,,0.05,Wunderground v.1.15,2013-04-06 19:18:00,
2013-04-06 14:22:00,47.4,45.5,29.49,West,273,10.0,21.0,93,0.00,,,0.05,Wunderground v.1.15,2013-04-06 19:22:00,
2013-04-06 14:26:00,47.5,45.6,29.50,West,262,11.0,21.0,93,0.00,,,0.05,Wunderground v.1.15,2013-04-06 19:26:00,
2013-04-06 14:30:00,47.1,44.9,29.50,WSW,246,12.0,12.0,92,0.00,,,0.05,Wunderground v.1.15,2013-04-06 19:30:00,
2013-04-06 14:32:00,46.9,45.0,29.50,West,269,12.0,21.0,93,0.00,,,0.05,Wunderground v.1.15,2013-04-06 19:32:00,
2013-04-06 14:34:00,46.8,44.9,29.50,West,259,12.0,21.0,93,0.00,,,0.05,Wunderground v.1.15,2013-04-06 19:34:00,
2013-04-06 14:38:00,46.5,44.6,29.50,West,265,12.0,21.0,93,0.00,,,0.05,Wunderground v.1.15,2013-04-06 19:38:00,
2013-04-06 14:40:00,46.4,44.5,29.50,West,270,12.0,21.0,93,0.00,,,0.05,Wunderground v.1.15,2013-04-06 19:40:00,
2013-04-06 14:44:00,46.5,45.1,29.50,WSW,245,11.0,21.0,95,0.00,,,0.05,Wunderground v.1.15,2013-04-06 19:44:00,
2013-04-06 14:46:00,46.5,44.9,29.51,WSW,246,11.0,21.0,94,0.00,,,0.05,Wunderground v.1.15,2013-04-06 19:46:00,
2013-04-06 14:52:00,46.8,45.2,29.50,West,260,10.0,21.0,94,0.00,,,0.05,Wunderground v.1.15,2013-04-06 19:52:00,
2013-04-06 14:56:00,47.1,45.7,29.50,West,274,9.0,21.0,95,0.00,,,0.05,Wunderground v.1.15,2013-04-06 19:56:00,
2013-04-06 14:58:00,47.3,45.9,29.51,WNW,284,9.0,21.0,95,0.00,,,0.05,Wunderground v.1.15,2013-04-06 19:58:00,
2013-04-06 15:00:00,47.4,46.0,29.51,West,263,8.0,21.0,95,0.00,,,0.05,Wunderground v.1.15,2013-04-06 20:00:00,
2013-04-06 15:08:00,48.0,45.8,29.51,NNW,335,9.0,21.0,92,0.00,,,0.05,Wunderground v.1.15,2013-04-06 20:08:00,
2013-04-06 15:10:00,48.2,46.0,29.51,NW,319,9.0,21.0,92,0.00,,,0.05,Wunderground v.1.15,2013-04-06 20:10:00,
2013-04-06 15:14:00,48.2,45.4,29.51,NNW,337,9.0,21.0,90,0.00,,,0.05,Wunderground v.1.15,2013-04-06 20:14:00,
2013-04-06 15:16:00,48.1,45.0,29.51,NNW,332,10.0,21.0,89,0.00,,,0.05,Wunderground v.1.15,2013-04-06 20:16:00,
2013-04-06 15:18:00,48.0,45.2,29.51,NW,305,10.0,21.0,90,0.00,,,0.05,Wunderground v.1.15,2013-04-06 20:18:00,
2013-04-06 15:24:00,47.7,44.9,29.52,NW,323,11.0,21.0,90,0.00,,,0.05,Wunderground v.1.15,2013-04-06 20:24:00,
2013-04-06 15:26:00,47.7,44.9,29.52,NW,319,11.0,21.0,90,0.00,,,0.05,Wunderground v.1.15,2013-04-06 20:26:00,
2013-04-06 15:32:00,47.8,45.3,29.52,WNW,291,10.0,21.0,91,0.00,,,0.05,Wunderground v.1.15,2013-04-06 20:32:00,
2013-04-06 15:34:00,48.0,45.2,29.52,WNW,302,10.0,21.0,90,0.00,,,0.05,Wunderground v.1.15,2013-04-06 20:34:00,
2013-04-06 15:38:00,48.7,45.6,29.52,NNW,330,10.0,21.0,89,0.00,,,0.05,Wunderground v.1.15,2013-04-06 20:38:00,
2013-04-06 15:44:00,48.9,45.2,29.53,NNW,335,10.0,21.0,87,0.00,,,0.05,Wunderground v.1.15,2013-04-06 20:44:00,
2013-04-06 15:46:00,48.9,45.5,29.53,NW,316,10.0,21.0,88,0.00,,,0.05,Wunderground v.1.15,2013-04-06 20:46:00,
2013-04-06 15:48:00,48.9,45.2,29.53,NW,304,10.0,21.0,87,0.00,,,0.05,Wunderground v.1.15,2013-04-06 20:48:00,
2013-04-06 15:52:00,48.9,45.2,29.53,NNW,328,10.0,21.0,87,0.00,,,0.05,Wunderground v.1.15,2013-04-06 20:52:00,
2013-04-06 15:54:00,48.7,45.0,29.53,NW,319,10.0,21.0,87,0.00,,,0.05,Wunderground v.1.15,2013-04-06 20:54:00,
2013-04-06 15:56:00,48.7,45.0,29.53,NW,319,10.0,21.0,87,0.00,,,0.05,Wunderground v.1.15,2013-04-06 20:56:00,
2013-04-06 15:58:00,48.7,45.0,29.53,NW,325,10.0,21.0,87,0.00,,,0.05,Wunderground v.1.15,2013-04-06 20:58:00,
2013-04-06 16:02:00,48.9,45.5,29.53,NNW,342,10.0,21.0,88,0.00,,,0.05,Wunderground v.1.15,2013-04-06 21:02:00,
2013-04-06 16:06:00,49.3,45.6,29.53,NW,325,10.0,21.0,87,0.00,,,0.05,Wunderground v.1.15,2013-04-06 21:06:00,
2013-04-06 16:08:00,49.6,45.9,29.53,NW,314,10.0,21.0,87,0.00,,,0.05,Wunderground v.1.15,2013-04-06 21:08:00,
2013-04-06 16:14:00,50.0,45.7,29.53,NW,320,11.0,21.0,85,0.00,,,0.05,Wunderground v.1.15,2013-04-06 21:14:00,
2013-04-06 16:18:00,50.1,45.8,29.53,NW,316,11.0,21.0,85,0.00,,,0.05,Wunderground v.1.15,2013-04-06 21:18:00,
2013-04-06 16:20:00,50.4,46.4,29.53,WNW,300,10.0,21.0,86,0.00,,,0.05,Wunderground v.1.15,2013-04-06 21:20:00,
2013-04-06 16:22:00,50.9,46.9,29.53,NW,317,11.0,21.0,86,0.00,,,0.05,Wunderground v.1.15,2013-04-06 21:22:00,
2013-04-06 16:26:00,51.6,46.6,29.53,NNW,345,10.0,21.0,83,0.00,,,0.05,Wunderground v.1.15,2013-04-06 21:26:00,
2013-04-06 16:28:00,51.6,45.6,29.53,NNW,328,11.0,21.0,80,0.00,,,0.05,Wunderground v.1.15,2013-04-06 21:28:00,
2013-04-06 16:34:00,51.8,46.5,29.54,North,349,11.0,21.0,82,0.00,,,0.05,Wunderground v.1.15,2013-04-06 21:34:00,
2013-04-06 16:40:00,52.2,46.2,29.54,NW,311,11.0,21.0,80,0.00,,,0.05,Wunderground v.1.15,2013-04-06 21:40:00,
2013-04-06 16:46:00,52.2,45.2,29.55,WNW,287,13.0,21.0,77,0.00,,,0.05,Wunderground v.1.15,2013-04-06 21:46:00,
2013-04-06 16:48:00,52.3,45.6,29.55,NW,315,13.0,21.0,78,0.00,,,0.05,Wunderground v.1.15,2013-04-06 21:48:00,
2013-04-06 16:54:00,52.3,45.3,29.55,NNW,335,13.0,21.0,77,0.00,,,0.05,Wunderground v.1.15,2013-04-06 21:54:00,
2013-04-06 16:56:00,52.4,45.4,29.55,NW,310,13.0,21.0,77,0.00,,,0.05,Wunderground v.1.15,2013-04-06 21:56:00,
2013-04-06 17:00:00,52.6,45.9,29.55,WNW,302,13.0,13.0,78,0.00,,,0.05,Wunderground v.1.15,2013-04-06 22:00:00,
2013-04-06 17:02:00,52.5,45.2,29.56,NNW,328,13.0,15.0,76,0.00,,,0.05,Wunderground v.1.15,2013-04-06 22:02:00,
2013-04-06 17:04:00,52.5,45.2,29.56,NW,325,12.0,21.0,76,0.00,,,0.05,Wunderground v.1.15,2013-04-06 22:04:00,
2013-04-06 17:06:00,52.6,45.2,29.56,WNW,295,12.0,21.0,76,0.00,,,0.05,Wunderground v.1.15,2013-04-06 22:06:00,
2013-04-06 17:10:00,52.7,45.3,29.56,NW,315,12.0,12.0,76,0.00,,,0.05,Wunderground v.1.15,2013-04-06 22:10:00,
2013-04-06 17:12:00,52.8,45.4,29.56,NNW,333,12.0,16.0,76,0.00,,,0.05,Wunderground v.1.15,2013-04-06 22:12:00,
2013-04-06 17:16:00,52.7,44.3,29.56,NW,318,12.0,21.0,73,0.00,,,0.05,Wunderground v.1.15,2013-04-06 22:16:00,
2013-04-06 17:22:00,52.8,44.4,29.57,NW,314,12.0,21.0,73,0.00,,,0.05,Wunderground v.1.15,2013-04-06 22:22:00,
2013-04-06 17:24:00,52.8,44.7,29.57,North,350,12.0,21.0,74,0.00,,,0.05,Wunderground v.1.15,2013-04-06 22:24:00,
2013-04-06 17:28:00,52.8,44.4,29.57,NW,316,12.0,21.0,73,0.00,,,0.05,Wunderground v.1.15,2013-04-06 22:28:00,
2013-04-06 17:36:00,52.8,44.7,29.58,NNW,333,12.0,21.0,74,0.00,,,0.05,Wunderground v.1.15,2013-04-06 22:36:00,
2013-04-06 17:38:00,52.8,44.4,29.58,NW,319,12.0,21.0,73,0.00,,,0.05,Wunderground v.1.15,2013-04-06 22:38:00,
2013-04-06 17:44:00,52.9,44.1,29.58,NNW,335,12.0,21.0,72,0.00,,,0.05,Wunderground v.1.15,2013-04-06 22:44:00,
2013-04-06 17:46:00,52.8,44.0,29.58,NNW,331,13.0,21.0,72,0.00,,,0.05,Wunderground v.1.15,2013-04-06 22:46:00,
2013-04-06 17:50:00,52.8,44.0,29.58,NW,325,12.0,21.0,72,0.00,,,0.05,Wunderground v.1.15,2013-04-06 22:50:00,
2013-04-06 17:52:00,52.8,44.0,29.58,NW,318,13.0,21.0,72,0.00,,,0.05,Wunderground v.1.15,2013-04-06 22:52:00,
2013-04-06 17:58:00,52.8,44.4,29.58,NW,319,12.0,21.0,73,0.00,,,0.05,Wunderground v.1.15,2013-04-06 22:58:00,
2013-04-06 18:00:00,52.9,44.5,29.58,NNE,18,12.0,21.0,73,0.00,,,0.05,Wunderground v.1.15,2013-04-06 23:00:00,
2013-04-06 18:08:00,52.9,44.1,29.58,NNW,335,11.0,21.0,72,0.00,,,0.05,Wunderground v.1.15,2013-04-06 23:08:00,
2013-04-06 18:14:00,52.9,43.7,29.59,NNW,340,11.0,21.0,71,0.00,,,0.05,Wunderground v.1.15,2013-04-06 23:14:00,
2013-04-06 18:16:00,52.8,44.0,29.59,NW,316,11.0,21.0,72,0.00,,,0.05,Wunderground v.1.15,2013-04-06 23:16:00,
2013-04-06 18:18:00,52.8,44.0,29.59,NNW,338,11.0,21.0,72,0.00,,,0.05,Wunderground v.1.15,2013-04-06 23:18:00,
2013-04-06 18:20:00,52.8,44.0,29.59,North,3,11.0,11.0,72,0.00,,,0.05,Wunderground v.1.15,2013-04-06 23:20:00,
2013-04-06 18:24:00,52.7,43.9,29.59,NNW,330,11.0,21.0,72,0.00,,,0.05,Wunderground v.1.15,2013-04-06 23:24:00,
2013-04-06 18:26:00,52.6,43.8,29.59,NNW,335,11.0,21.0,72,0.00,,,0.05,Wunderground v.1.15,2013-04-06 23:26:00,
2013-04-06 18:28:00,52.5,43.4,29.60,NNW,342,11.0,21.0,71,0.00,,,0.05,Wunderground v.1.15,2013-04-06 23:28:00,
2013-04-06 18:32:00,52.5,43.7,29.60,NNW,335,11.0,21.0,72,0.00,,,0.05,Wunderground v.1.15,2013-04-06 23:32:00,
2013-04-06 18:34:00,52.5,44.1,29.60,NNW,337,10.0,21.0,73,0.00,,,0.05,Wunderground v.1.15,2013-04-06 23:34:00,
2013-04-06 18:38:00,52.5,43.7,29.60,North,357,10.0,21.0,72,0.00,,,0.05,Wunderground v.1.15,2013-04-06 23:38:00,
2013-04-06 18:42:00,52.4,43.6,29.60,North,356,10.0,14.0,72,0.00,,,0.05,Wunderground v.1.15,2013-04-06 23:42:00,
2013-04-06 18:44:00,52.3,43.9,29.60,NNW,327,10.0,21.0,73,0.00,,,0.05,Wunderground v.1.15,2013-04-06 23:44:00,
2013-04-06 18:48:00,52.3,43.9,29.61,North,352,9.0,21.0,73,0.00,,,0.05,Wunderground v.1.15,2013-04-06 23:48:00,
2013-04-06 18:54:00,51.9,43.2,29.61,North,358,8.0,21.0,72,0.00,,,0.05,Wunderground v.1.15,2013-04-06 23:54:00,
2013-04-06 18:56:00,51.8,43.4,29.61,North,352,9.0,21.0,73,0.00,,,0.05,Wunderground v.1.15,2013-04-06 23:56:00,
2013-04-06 18:58:00,51.7,43.0,29.61,NNE,21,10.0,21.0,72,0.00,,,0.05,Wunderground v.1.15,2013-04-06 23:58:00,
2013-04-06 19:00:00,51.6,42.9,29.61,North,352,10.0,21.0,72,0.00,,,0.05,Wunderground v.1.15,2013-04-07 00:00:00,
2013-04-06 19:04:00,51.4,42.7,29.61,NNW,342,10.0,21.0,72,0.00,,,0.05,Wunderground v.1.15,2013-04-07 00:04:00,
2013-04-06 19:10:00,51.1,42.7,29.61,NNE,23,9.0,21.0,73,0.00,,,0.05,Wunderground v.1.15,2013-04-07 00:10:00,
2013-04-06 19:12:00,50.9,42.6,29.61,NNW,347,9.0,21.0,73,0.00,,,0.05,Wunderground v.1.15,2013-04-07 00:12:00,
2013-04-06 19:18:00,50.3,42.3,29.61,NNE,16,9.0,21.0,74,0.00,,,0.05,Wunderground v.1.15,2013-04-07 00:18:00,
2013-04-06 19:20:00,50.1,42.1,29.61,North,355,9.0,21.0,74,0.00,,,0.05,Wunderground v.1.15,2013-04-07 00:20:00,
2013-04-06 19:22:00,49.9,42.3,29.61,North,359,9.0,21.0,75,0.00,,,0.05,Wunderground v.1.15,2013-04-07 00:22:00,
2013-04-06 19:24:00,49.7,42.1,29.61,North,352,9.0,21.0,75,0.00,,,0.05,Wunderground v.1.15,2013-04-07 00:24:00,
2013-04-06 19:30:00,49.1,41.9,29.62,NNW,332,9.0,9.0,76,0.00,,,0.05,Wunderground v.1.15,2013-04-07 00:30:00,
2013-04-06 19:32:00,48.9,41.7,29.62,NNW,344,8.0,21.0,76,0.00,,,0.05,Wunderground v.1.15,2013-04-07 00:32:00,
2013-04-06 19:38:00,48.3,41.1,29.63,NNW,327,8.0,21.0,76,0.00,,,0.05,Wunderground v.1.15,2013-04-07 00:38:00,
2013-04-06 19:40:00,48.2,41.3,29.63,NNW,335,8.0,21.0,77,0.00,,,0.05,Wunderground v.1.15,2013-04-07 00:40:00,
2013-04-06 19:44:00,47.8,40.9,29.63,North,352,8.0,21.0,77,0.00,,,0.05,Wunderground v.1.15,2013-04-07 00:44:00,
2013-04-06 19:50:00,47.2,40.7,29.64,NNW,338,8.0,8.0,78,0.00,,,0.05,Wunderground v.1.15,2013-04-07 00:50:00,
2013-04-06 19:52:00,46.9,40.4,29.64,NNW,345,8.0,21.0,78,0.00,,,0.05,Wunderground v.1.15,2013-04-07 00:52:00,
2013-04-06 19:56:00,46.5,40.3,29.64,NNW,335,7.0,21.0,79,0.00,,,0.05,Wunderground v.1.15,2013-04-07 00:56:00,
2013-04-06 19:58:00,46.4,40.2,29.64,NNW,344,7.0,21.0,79,0.00,,,0.05,Wunderground v.1.15,2013-04-07 00:58:00,
2013-04-06 20:04:00,45.8,40.0,29.65,NNW,347,7.0,21.0,80,0.00,,,0.05,Wunderground v.1.15,2013-04-07 01:04:00,
2013-04-06 20:10:00,45.3,39.8,29.65,NNW,337,6.0,6.0,81,0.00,,,0.05,Wunderground v.1.15,2013-04-07 01:10:00,
2013-04-06 20:12:00,45.1,39.6,29.65,NNW,338,6.0,21.0,81,0.00,,,0.05,Wunderground v.1.15,2013-04-07 01:12:00,
2013-04-06 20:16:00,44.8,39.6,29.65,North,355,6.0,21.0,82,0.00,,,0.05,Wunderground v.1.15,2013-04-07 01:16:00,
2013-04-06 20:20:00,44.6,39.4,29.65,North,352,6.0,21.0,82,0.00,,,0.05,Wunderground v.1.15,2013-04-07 01:20:00,
2013-04-06 20:22:00,44.5,39.7,29.65,NNW,346,6.0,21.0,83,0.00,,,0.05,Wunderground v.1.15,2013-04-07 01:22:00,
2013-04-06 20:30:00,44.5,39.7,29.66,NNW,343,7.0,7.0,83,0.00,,,0.05,Wunderground v.1.15,2013-04-07 01:30:00,
2013-04-06 20:32:00,44.4,39.6,29.66,NW,307,7.0,8.0,83,0.00,,,0.05,Wunderground v.1.15,2013-04-07 01:32:00,
2013-04-06 20:36:00,44.2,39.4,29.66,NNW,338,7.0,21.0,83,0.00,,,0.05,Wunderground v.1.15,2013-04-07 01:36:00,
2013-04-06 20:38:00,44.2,39.4,29.66,North,359,7.0,21.0,83,0.00,,,0.05,Wunderground v.1.15,2013-04-07 01:38:00,
2013-04-06 20:40:00,44.1,39.3,29.66,NNW,345,7.0,7.0,83,0.00,,,0.05,Wunderground v.1.15,2013-04-07 01:40:00,
2013-04-06 20:42:00,43.9,39.1,29.67,NNW,348,7.0,21.0,83,0.00,,,0.05,Wunderground v.1.15,2013-04-07 01:42:00,
2013-04-06 20:48:00,43.3,38.8,29.67,North,356,5.0,21.0,84,0.00,,,0.05,Wunderground v.1.15,2013-04-07 01:48:00,
2013-04-06 20:56:00,42.5,38.3,29.67,North,356,4.0,21.0,85,0.00,,,0.05,Wunderground v.1.15,2013-04-07 01:56:00,
2013-04-06 20:58:00,42.4,38.2,29.67,North,356,4.0,21.0,85,0.00,,,0.05,Wunderground v.1.15,2013-04-07 01:58:00,
2013-04-06 21:02:00,42.2,38.3,29.67,NNE,12,4.0,5.0,86,0.00,,,0.05,Wunderground v.1.15,2013-04-07 02:02:00,
2013-04-06 21:04:00,42.0,38.1,29.68,NNE,23,5.0,21.0,86,0.00,,,0.05,Wunderground v.1.15,2013-04-07 02:04:00,
2013-04-06 21:06:00,41.8,37.9,29.68,NNE,18,5.0,21.0,86,0.00,,,0.05,Wunderground v.1.15,2013-04-07 02:06:00,
2013-04-06 21:08:00,41.6,38.0,29.67,North,6,5.0,21.0,87,0.00,,,0.05,Wunderground v.1.15,2013-04-07 02:08:00,
2013-04-06 21:12:00,41.5,37.9,29.67,NNE,13,6.0,21.0,87,0.00,,,0.05,Wunderground v.1.15,2013-04-07 02:12:00,
2013-04-06 21:18:00,41.0,37.7,29.68,NNE,15,6.0,21.0,88,0.00,,,0.05,Wunderground v.1.15,2013-04-07 02:18:00,
2013-04-06 21:22:00,40.7,37.4,29.67,North,8,6.0,21.0,88,0.00,,,0.05,Wunderground v.1.15,2013-04-07 02:22:00,
2013-04-06 21:24:00,40.5,37.5,29.67,NNE,23,5.0,21.0,89,0.00,,,0.05,Wunderground v.1.15,2013-04-07 02:24:00,
2013-04-06 21:26:00,40.3,37.3,29.68,North,354,5.0,21.0,89,0.00,,,0.05,Wunderground v.1.15,2013-04-07 02:26:00,
2013-04-06 21:32:00,40.0,37.3,29.68,North,1,5.0,9.0,90,0.00,,,0.05,Wunderground v.1.15,2013-04-07 02:32:00,
2013-04-06 21:34:00,40.0,37.3,29.68,NNE,15,6.0,21.0,90,0.00,,,0.05,Wunderground v.1.15,2013-04-07 02:34:00,
2013-04-06 21:38:00,39.9,37.2,29.69,North,354,6.0,21.0,90,0.00,,,0.05,Wunderground v.1.15,2013-04-07 02:38:00,
2013-04-06 21:40:00,39.8,37.1,29.69,NNW,338,6.0,6.0,90,0.00,,,0.05,Wunderground v.1.15,2013-04-07 02:40:00,
2013-04-06 21:42:00,39.6,36.9,29.69,NNW,344,6.0,9.0,90,0.00,,,0.05,Wunderground v.1.15,2013-04-07 02:42:00,
2013-04-06 21:48:00,39.5,36.8,29.69,NNW,328,6.0,21.0,90,0.00,,,0.05,Wunderground v.1.15,2013-04-07 02:48:00,
2013-04-06 21:52:00,39.5,36.8,29.70,NW,324,6.0,21.0,90,0.00,,,0.05,Wunderground v.1.15,2013-04-07 02:52:00,
2013-04-06 21:56:00,39.1,36.1,29.70,NNW,328,5.0,21.0,89,0.00,,,0.05,Wunderground v.1.15,2013-04-07 02:56:00,
2013-04-06 22:02:00,38.3,35.6,29.70,NNW,330,4.0,21.0,90,0.00,,,0.05,Wunderground v.1.15,2013-04-07 03:02:00,
2013-04-06 22:06:00,38.0,35.3,29.70,North,356,3.0,21.0,90,0.00,,,0.05,Wunderground v.1.15,2013-04-07 03:06:00,
2013-04-06 22:12:00,37.6,35.2,29.70,NNW,346,3.0,21.0,91,0.00,,,0.05,Wunderground v.1.15,2013-04-07 03:12:00,
2013-04-06 22:14:00,37.5,35.1,29.70,North,355,3.0,21.0,91,0.00,,,0.05,Wunderground v.1.15,2013-04-07 03:14:00,
2013-04-06 22:18:00,37.4,35.0,29.70,North,356,4.0,21.0,91,0.00,,,0.05,Wunderground v.1.15,2013-04-07 03:18:00,
2013-04-06 22:20:00,37.3,35.2,29.70,North,1,4.0,4.0,92,0.00,,,0.05,Wunderground v.1.15,2013-04-07 03:20:00,
2013-04-06 22:22:00,37.3,35.2,29.70,North,3,4.0,21.0,92,0.00,,,0.05,Wunderground v.1.15,2013-04-07 03:22:00,
2013-04-06 22:26:00,37.4,35.3,29.71,NNW,345,4.0,21.0,92,0.00,,,0.05,Wunderground v.1.15,2013-04-07 03:26:00,
2013-04-06 22:32:00,37.0,34.6,29.71,NNW,341,3.0,21.0,91,0.00,,,0.05,Wunderground v.1.15,2013-04-07 03:32:00,
2013-04-06 22:34:00,36.8,34.4,29.71,NW,324,2.0,21.0,91,0.00,,,0.05,Wunderground v.1.15,2013-04-07 03:34:00,
2013-04-06 22:36:00,36.6,33.9,29.71,NW,315,2.0,21.0,90,0.00,,,0.05,Wunderground v.1.15,2013-04-07 03:36:00,
2013-04-06 22:38:00,36.4,34.0,29.71,NW,324,2.0,21.0,91,0.00,,,0.05,Wunderground v.1.15,2013-04-07 03:38:00,
2013-04-06 22:40:00,36.2,33.8,29.72,NW,319,2.0,2.0,91,0.00,,,0.05,Wunderground v.1.15,2013-04-07 03:40:00,
2013-04-06 22:44:00,35.9,33.5,29.72,NW,318,2.0,21.0,91,0.00,,,0.05,Wunderground v.1.15,2013-04-07 03:44:00,
2013-04-06 22:48:00,35.5,33.4,29.72,North,350,1.0,21.0,92,0.00,,,0.05,Wunderground v.1.15,2013-04-07 03:48:00,
2013-04-06 22:52:00,35.3,33.2,29.72,North,1,2.0,21.0,92,0.00,,,0.05,Wunderground v.1.15,2013-04-07 03:52:00,
2013-04-06 22:54:00,35.3,33.2,29.72,NNE,27,2.0,21.0,92,0.00,,,0.05,Wunderground v.1.15,2013-04-07 03:54:00,
2013-04-06 22:56:00,35.2,33.1,29.72,North,9,2.0,21.0,92,0.00,,,0.05,Wunderground v.1.15,2013-04-07 03:56:00,
2013-04-06 22:58:00,35.2,33.4,29.72,NNE,29,2.0,21.0,93,0.00,,,0.05,Wunderground v.1.15,2013-04-07 03:58:00,
2013-04-06 23:00:00,35.1,33.3,29.72,NNE,14,3.0,3.0,93,0.00,,,0.05,Wunderground v.1.15,2013-04-07 04:00:00,
2013-04-06 23:02:00,35.1,33.3,29.72,North,9,3.0,21.0,93,0.00,,,0.05,Wunderground v.1.15,2013-04-07 04:02:00,
2013-04-06 23:08:00,35.0,33.2,29.72,North,1,3.0,21.0,93,0.00,,,0.05,Wunderground v.1.15,2013-04-07 04:08:00,
2013-04-06 23:12:00,34.9,33.1,29.72,North,1,2.0,21.0,93,0.00,,,0.05,Wunderground v.1.15,2013-04-07 04:12:00,
2013-04-06 23:18:00,34.9,33.3,29.72,NNW,334,1.0,21.0,94,0.00,,,0.05,Wunderground v.1.15,2013-04-07 04:18:00,
2013-04-06 23:20:00,35.1,33.5,29.73,NNW,342,1.0,21.0,94,0.00,,,0.05,Wunderground v.1.15,2013-04-07 04:20:00,
2013-04-06 23:22:00,35.3,34.0,29.72,NNW,342,2.0,21.0,95,0.00,,,0.05,Wunderground v.1.15,2013-04-07 04:22:00,
2013-04-06 23:24:00,35.3,33.5,29.73,North,5,2.0,21.0,93,0.00,,,0.05,Wunderground v.1.15,2013-04-07 04:24:00,
2013-04-06 23:28:00,35.1,33.0,29.73,North,360,3.0,21.0,92,0.00,,,0.05,Wunderground v.1.15,2013-04-07 04:28:00,
2013-04-06 23:34:00,34.4,32.3,29.73,NW,321,3.0,21.0,92,0.00,,,0.05,Wunderground v.1.15,2013-04-07 04:34:00,
2013-04-06 23:40:00,34.2,32.4,29.73,NNW,338,3.0,21.0,93,0.00,,,0.05,Wunderground v.1.15,2013-04-07 04:40:00,
2013-04-06 23:42:00,34.3,32.8,29.73,North,5,3.0,21.0,94,0.00,,,0.05,Wunderground v.1.15,2013-04-07 04:42:00,
2013-04-06 23:44:00,34.3,32.8,29.73,NNW,327,3.0,21.0,94,0.00,,,0.05,Wunderground v.1.15,2013-04-07 04:44:00,
2013-04-06 23:46:00,34.1,32.3,29.73,NNW,342,4.0,21.0,93,0.00,,,0.05,Wunderground v.1.15,2013-04-07 04:46:00,
2013-04-06 23:50:00,33.7,31.9,29.73,North,350,4.0,4.0,93,0.00,,,0.05,Wunderground v.1.15,2013-04-07 04:50:00,
2013-04-06 23:52:00,33.5,31.7,29.73,NNW,333,3.0,21.0,93,0.00,,,0.05,Wunderground v.1.15,2013-04-07 04:52:00,
2013-04-06 23:56:00,33.2,31.7,29.73,NW,319,3.0,21.0,94,0.00,,,0.05,Wunderground v.1.15,2013-04-07 04:56:00,
2013-04-06 23:58:00,33.2,31.7,29.73,WNW,293,3.0,21.0,94,0.00,,,0.05,Wunderground v.1.15,2013-04-07 04:58:00,